Coosa, Georgia
Current Conditions -  °F | °C
As of 2:53 AM on Thursday 23 Oct 2014 (Local Time) from KRMG Reporting Station
Clear Clear  
Wind Chill: 42°   Ceiling: Unl
Heat Index: 46°   Visibility: 10mi
Dew Point: 40°   Wind: 7mph
Humidity: 79%   Direction: 350°N
Pressure: 30.14"   Gusts: NA
Location:  34.25°N, 85.35°W
Report Text: KRMG 230653Z AUTO 35006KT 10SM CLR 08/04 A3014 RMK AO2 SLP201 T00780044
Loading
Personal Weather Stations






























Interactive Weather Map
Tropical Storm Tracking
New forecast layout! Learn more

10-Day Weather Forecast

Advertisements
Track Severe Weather on mobile